sensor_id;sensor_type;location;lat;lon;timestamp;P1;durP1;ratioP1;P2;durP2;ratioP2
8885;SDS011;4479;51.162;13.906;2022-07-29T00:03:40;1.47;;;0.93;;
8885;SDS011;4479;51.162;13.906;2022-07-29T00:13:45;1.60;;;1.00;;
8885;SDS011;4479;51.162;13.906;2022-07-29T00:23:49;1.47;;;0.90;;
8885;SDS011;4479;51.162;13.906;2022-07-29T00:33:54;1.30;;;1.00;;
8885;SDS011;4479;51.162;13.906;2022-07-29T00:43:58;3.07;;;1.33;;
8885;SDS011;4479;51.162;13.906;2022-07-29T00:54:03;1.50;;;0.90;;
8885;SDS011;4479;51.162;13.906;2022-07-29T01:04:07;1.53;;;1.10;;
8885;SDS011;4479;51.162;13.906;2022-07-29T01:14:12;3.53;;;1.13;;
8885;SDS011;4479;51.162;13.906;2022-07-29T01:24:23;3.10;;;1.30;;
8885;SDS011;4479;51.162;13.906;2022-07-29T01:34:41;1.70;;;1.20;;
8885;SDS011;4479;51.162;13.906;2022-07-29T01:44:53;2.13;;;1.10;;
8885;SDS011;4479;51.162;13.906;2022-07-29T01:55:02;2.33;;;1.20;;
8885;SDS011;4479;51.162;13.906;2022-07-29T02:05:12;2.17;;;1.20;;
8885;SDS011;4479;51.162;13.906;2022-07-29T02:15:20;1.03;;;1.03;;
8885;SDS011;4479;51.162;13.906;2022-07-29T02:25:26;1.27;;;1.17;;
8885;SDS011;4479;51.162;13.906;2022-07-29T02:35:31;2.77;;;1.13;;
8885;SDS011;4479;51.162;13.906;2022-07-29T02:45:35;1.90;;;1.40;;
8885;SDS011;4479;51.162;13.906;2022-07-29T02:55:42;1.80;;;1.20;;
8885;SDS011;4479;51.162;13.906;2022-07-29T03:05:50;3.10;;;1.27;;
8885;SDS011;4479;51.162;13.906;2022-07-29T03:15:58;1.57;;;1.13;;
8885;SDS011;4479;51.162;13.906;2022-07-29T03:26:03;5.63;;;1.40;;
8885;SDS011;4479;51.162;13.906;2022-07-29T03:36:08;2.00;;;1.10;;
8885;SDS011;4479;51.162;13.906;2022-07-29T03:46:11;1.23;;;1.10;;
8885;SDS011;4479;51.162;13.906;2022-07-29T03:56:21;2.53;;;1.30;;
8885;SDS011;4479;51.162;13.906;2022-07-29T04:06:25;2.73;;;1.20;;
8885;SDS011;4479;51.162;13.906;2022-07-29T04:16:30;1.77;;;1.30;;
8885;SDS011;4479;51.162;13.906;2022-07-29T04:26:34;3.00;;;1.37;;
8885;SDS011;4479;51.162;13.906;2022-07-29T04:36:39;3.30;;;1.20;;
8885;SDS011;4479;51.162;13.906;2022-07-29T04:46:43;2.10;;;1.20;;
8885;SDS011;4479;51.162;13.906;2022-07-29T04:56:49;1.93;;;1.20;;
8885;SDS011;4479;51.162;13.906;2022-07-29T05:06:53;3.63;;;1.33;;
8885;SDS011;4479;51.162;13.906;2022-07-29T05:16:58;1.30;;;1.20;;
8885;SDS011;4479;51.162;13.906;2022-07-29T05:27:02;1.13;;;1.00;;
8885;SDS011;4479;51.162;13.906;2022-07-29T05:37:08;3.60;;;0.97;;
8885;SDS011;4479;51.162;13.906;2022-07-29T05:47:13;1.43;;;1.03;;
8885;SDS011;4479;51.162;13.906;2022-07-29T05:57:19;1.80;;;0.93;;
8885;SDS011;4479;51.162;13.906;2022-07-29T06:07:24;3.07;;;1.30;;
8885;SDS011;4479;51.162;13.906;2022-07-29T06:17:29;1.90;;;1.10;;
8885;SDS011;4479;51.162;13.906;2022-07-29T06:27:33;1.20;;;1.10;;
8885;SDS011;4479;51.162;13.906;2022-07-29T06:37:38;1.90;;;1.20;;
8885;SDS011;4479;51.162;13.906;2022-07-29T06:47:42;1.73;;;1.10;;
8885;SDS011;4479;51.162;13.906;2022-07-29T06:57:46;3.93;;;1.40;;
8885;SDS011;4479;51.162;13.906;2022-07-29T07:07:50;6.40;;;1.53;;
8885;SDS011;4479;51.162;13.906;2022-07-29T07:17:55;1.83;;;1.50;;
8885;SDS011;4479;51.162;13.906;2022-07-29T07:27:59;5.73;;;1.30;;
8885;SDS011;4479;51.162;13.906;2022-07-29T07:38:04;1.10;;;1.00;;
8885;SDS011;4479;51.162;13.906;2022-07-29T07:48:07;1.47;;;1.37;;
8885;SDS011;4479;51.162;13.906;2022-07-29T07:58:14;1.70;;;1.33;;
8885;SDS011;4479;51.162;13.906;2022-07-29T08:08:17;2.93;;;1.67;;
8885;SDS011;4479;51.162;13.906;2022-07-29T08:18:23;2.63;;;1.70;;
8885;SDS011;4479;51.162;13.906;2022-07-29T08:28:26;1.93;;;1.77;;
8885;SDS011;4479;51.162;13.906;2022-07-29T08:38:32;2.20;;;1.70;;
8885;SDS011;4479;51.162;13.906;2022-07-29T08:48:36;1.60;;;1.40;;
8885;SDS011;4479;51.162;13.906;2022-07-29T08:58:43;3.03;;;1.50;;
8885;SDS011;4479;51.162;13.906;2022-07-29T09:08:47;2.20;;;1.70;;
8885;SDS011;4479;51.162;13.906;2022-07-29T09:18:52;2.13;;;1.50;;
8885;SDS011;4479;51.162;13.906;2022-07-29T09:28:56;3.23;;;1.80;;
8885;SDS011;4479;51.162;13.906;2022-07-29T09:39:01;2.47;;;1.70;;
8885;SDS011;4479;51.162;13.906;2022-07-29T09:49:05;2.80;;;1.70;;
8885;SDS011;4479;51.162;13.906;2022-07-29T09:59:12;1.47;;;1.37;;
8885;SDS011;4479;51.162;13.906;2022-07-29T10:09:15;3.93;;;1.50;;
8885;SDS011;4479;51.162;13.906;2022-07-29T10:19:20;1.87;;;1.67;;
8885;SDS011;4479;51.162;13.906;2022-07-29T10:29:24;2.43;;;1.43;;
8885;SDS011;4479;51.162;13.906;2022-07-29T10:39:36;2.43;;;1.93;;
8885;SDS011;4479;51.162;13.906;2022-07-29T10:49:57;2.00;;;1.90;;
8885;SDS011;4479;51.162;13.906;2022-07-29T11:10:31;2.43;;;2.07;;
8885;SDS011;4479;51.162;13.906;2022-07-29T11:20:40;2.47;;;2.13;;
8885;SDS011;4479;51.162;13.906;2022-07-29T11:30:48;2.63;;;2.43;;
8885;SDS011;4479;51.162;13.906;2022-07-29T11:51:26;3.13;;;2.83;;
8885;SDS011;4479;51.162;13.906;2022-07-29T12:01:31;3.27;;;2.97;;
8885;SDS011;4479;51.162;13.906;2022-07-29T12:11:34;9.17;;;3.50;;
8885;SDS011;4479;51.162;13.906;2022-07-29T12:21:46;6.27;;;4.10;;
8885;SDS011;4479;51.162;13.906;2022-07-29T12:31:52;5.77;;;3.63;;
8885;SDS011;4479;51.162;13.906;2022-07-29T12:41:58;3.77;;;3.33;;
8885;SDS011;4479;51.162;13.906;2022-07-29T12:52:03;5.17;;;4.07;;
8885;SDS011;4479;51.162;13.906;2022-07-29T14:58:37;2.77;;;2.30;;
8885;SDS011;4479;51.162;13.906;2022-07-29T15:08:43;3.80;;;2.27;;
8885;SDS011;4479;51.162;13.906;2022-07-29T15:18:48;3.97;;;2.50;;
8885;SDS011;4479;51.162;13.906;2022-07-29T15:28:52;3.23;;;2.33;;
8885;SDS011;4479;51.162;13.906;2022-07-29T15:38:57;2.43;;;2.23;;
8885;SDS011;4479;51.162;13.906;2022-07-29T15:49:01;3.23;;;2.30;;
8885;SDS011;4479;51.162;13.906;2022-07-29T15:59:08;2.13;;;2.03;;
8885;SDS011;4479;51.162;13.906;2022-07-29T16:09:12;3.67;;;2.23;;
8885;SDS011;4479;51.162;13.906;2022-07-29T16:19:17;2.20;;;2.10;;
8885;SDS011;4479;51.162;13.906;2022-07-29T16:29:20;2.63;;;2.20;;
8885;SDS011;4479;51.162;13.906;2022-07-29T16:39:25;3.97;;;3.17;;
8885;SDS011;4479;51.162;13.906;2022-07-29T16:49:29;2.80;;;2.60;;
8885;SDS011;4479;51.162;13.906;2022-07-29T16:59:34;3.20;;;2.90;;
8885;SDS011;4479;51.162;13.906;2022-07-29T17:09:37;6.83;;;5.90;;
8885;SDS011;4479;51.162;13.906;2022-07-29T17:19:42;4.10;;;3.70;;
8885;SDS011;4479;51.162;13.906;2022-07-29T17:29:46;4.53;;;3.13;;
8885;SDS011;4479;51.162;13.906;2022-07-29T17:39:53;2.93;;;2.73;;
8885;SDS011;4479;51.162;13.906;2022-07-29T17:49:56;5.10;;;4.50;;
8885;SDS011;4479;51.162;13.906;2022-07-29T18:00:01;8.20;;;7.40;;
8885;SDS011;4479;51.162;13.906;2022-07-29T18:10:07;4.27;;;2.60;;
8885;SDS011;4479;51.162;13.906;2022-07-29T18:20:12;2.30;;;2.10;;
8885;SDS011;4479;51.162;13.906;2022-07-29T18:30:16;2.53;;;2.00;;
8885;SDS011;4479;51.162;13.906;2022-07-29T18:40:21;2.63;;;2.03;;
8885;SDS011;4479;51.162;13.906;2022-07-29T18:50:25;3.93;;;2.00;;
8885;SDS011;4479;51.162;13.906;2022-07-29T19:00:30;4.43;;;4.03;;
8885;SDS011;4479;51.162;13.906;2022-07-29T19:10:33;2.93;;;2.30;;
8885;SDS011;4479;51.162;13.906;2022-07-29T19:20:38;3.03;;;2.70;;
8885;SDS011;4479;51.162;13.906;2022-07-29T19:30:42;4.33;;;3.70;;
8885;SDS011;4479;51.162;13.906;2022-07-29T19:40:47;3.20;;;2.60;;
8885;SDS011;4479;51.162;13.906;2022-07-29T19:50:51;4.17;;;3.60;;
8885;SDS011;4479;51.162;13.906;2022-07-29T20:00:56;4.53;;;3.97;;
8885;SDS011;4479;51.162;13.906;2022-07-29T20:11:00;4.03;;;3.10;;
8885;SDS011;4479;51.162;13.906;2022-07-29T20:21:05;3.13;;;2.50;;
8885;SDS011;4479;51.162;13.906;2022-07-29T20:31:09;3.00;;;2.70;;
8885;SDS011;4479;51.162;13.906;2022-07-29T20:41:16;4.63;;;2.67;;
8885;SDS011;4479;51.162;13.906;2022-07-29T20:51:20;3.47;;;3.17;;
8885;SDS011;4479;51.162;13.906;2022-07-29T21:01:27;5.50;;;3.30;;
8885;SDS011;4479;51.162;13.906;2022-07-29T21:11:31;4.20;;;3.70;;
8885;SDS011;4479;51.162;13.906;2022-07-29T21:21:35;3.00;;;2.70;;
8885;SDS011;4479;51.162;13.906;2022-07-29T21:31:39;3.37;;;2.40;;
8885;SDS011;4479;51.162;13.906;2022-07-29T21:41:44;2.80;;;2.33;;
8885;SDS011;4479;51.162;13.906;2022-07-29T21:51:49;2.53;;;2.33;;
8885;SDS011;4479;51.162;13.906;2022-07-29T22:01:54;3.47;;;2.50;;
8885;SDS011;4479;51.162;13.906;2022-07-29T22:12:00;4.73;;;2.30;;
8885;SDS011;4479;51.162;13.906;2022-07-29T22:22:05;4.07;;;2.60;;
8885;SDS011;4479;51.162;13.906;2022-07-29T22:32:08;3.10;;;1.93;;
8885;SDS011;4479;51.162;13.906;2022-07-29T22:42:14;2.70;;;2.40;;
8885;SDS011;4479;51.162;13.906;2022-07-29T22:52:17;2.70;;;2.50;;
8885;SDS011;4479;51.162;13.906;2022-07-29T23:02:25;2.80;;;2.43;;
8885;SDS011;4479;51.162;13.906;2022-07-29T23:12:29;2.67;;;2.10;;
8885;SDS011;4479;51.162;13.906;2022-07-29T23:22:34;2.87;;;2.63;;
8885;SDS011;4479;51.162;13.906;2022-07-29T23:32:37;4.27;;;2.33;;
8885;SDS011;4479;51.162;13.906;2022-07-29T23:42:42;2.67;;;2.47;;
8885;SDS011;4479;51.162;13.906;2022-07-29T23:52:46;4.87;;;3.00;;
